sensor_id;sensor_type;location;lat;lon;timestamp;pressure;altitude;pressure_sealevel;temperature;humidity
19783;BME280;10051;40.294;-3.754;2023-02-24T00:01:51;93586.16;;;5.57;55.01
19783;BME280;10051;40.294;-3.754;2023-02-24T00:04:18;93580.66;;;5.58;54.72
19783;BME280;10051;40.294;-3.754;2023-02-24T00:06:45;93580.94;;;5.51;54.91
19783;BME280;10051;40.294;-3.754;2023-02-24T00:09:17;93571.03;;;5.64;54.58
19783;BME280;10051;40.294;-3.754;2023-02-24T00:11:46;93568.94;;;5.56;54.84
19783;BME280;10051;40.294;-3.754;2023-02-24T00:14:14;93573.09;;;5.57;54.30
19783;BME280;10051;40.294;-3.754;2023-02-24T00:16:42;93561.88;;;5.61;54.25
19783;BME280;10051;40.294;-3.754;2023-02-24T00:19:10;93518.88;;;5.23;54.40
19783;BME280;10051;40.294;-3.754;2023-02-24T00:21:38;93533.44;;;5.34;54.07
19783;BME280;10051;40.294;-3.754;2023-02-24T00:24:04;93516.00;;;5.29;53.87
19783;BME280;10051;40.294;-3.754;2023-02-24T00:26:30;93507.66;;;5.17;53.74
19783;BME280;10051;40.294;-3.754;2023-02-24T00:28:56;93537.09;;;5.33;54.51
19783;BME280;10051;40.294;-3.754;2023-02-24T00:31:25;93404.38;;;4.28;54.61
19783;BME280;10051;40.294;-3.754;2023-02-24T00:33:59;93575.69;;;5.46;54.87
19783;BME280;10051;40.294;-3.754;2023-02-24T00:36:27;93570.75;;;5.45;55.23
19783;BME280;10051;40.294;-3.754;2023-02-24T00:38:58;93451.09;;;4.76;54.25
19783;BME280;10051;40.294;-3.754;2023-02-24T00:41:26;93567.63;;;5.58;54.13
19783;BME280;10051;40.294;-3.754;2023-02-24T00:44:04;93563.72;;;5.50;54.65
19783;BME280;10051;40.294;-3.754;2023-02-24T00:46:36;93558.75;;;5.54;54.33
19783;BME280;10051;40.294;-3.754;2023-02-24T00:49:06;93483.16;;;5.02;54.85
19783;BME280;10051;40.294;-3.754;2023-02-24T00:51:44;93554.34;;;5.65;54.43
19783;BME280;10051;40.294;-3.754;2023-02-24T00:54:11;93557.19;;;5.53;55.02
19783;BME280;10051;40.294;-3.754;2023-02-24T00:56:45;93512.34;;;5.04;55.53
19783;BME280;10051;40.294;-3.754;2023-02-24T00:59:13;93558.75;;;5.33;55.49
19783;BME280;10051;40.294;-3.754;2023-02-24T01:01:40;93520.16;;;5.15;55.33
19783;BME280;10051;40.294;-3.754;2023-02-24T01:04:07;93560.06;;;5.41;55.76
19783;BME280;10051;40.294;-3.754;2023-02-24T01:06:44;93556.16;;;5.49;54.89
19783;BME280;10051;40.294;-3.754;2023-02-24T01:09:12;93514.16;;;5.14;55.53
19783;BME280;10051;40.294;-3.754;2023-02-24T01:11:38;93513.91;;;5.05;55.70
19783;BME280;10051;40.294;-3.754;2023-02-24T01:14:28;93544.41;;;5.31;56.27
19783;BME280;10051;40.294;-3.754;2023-02-24T01:16:55;93548.84;;;5.41;55.94
19783;BME280;10051;40.294;-3.754;2023-02-24T01:19:23;93478.44;;;4.79;55.93
19783;BME280;10051;40.294;-3.754;2023-02-24T01:21:49;93513.91;;;5.16;55.74
19783;BME280;10051;40.294;-3.754;2023-02-24T01:24:22;93540.25;;;5.25;56.42
19783;BME280;10051;40.294;-3.754;2023-02-24T01:26:48;93481.56;;;4.86;56.44
19783;BME280;10051;40.294;-3.754;2023-02-24T01:29:14;93530.34;;;5.27;56.61
19783;BME280;10051;40.294;-3.754;2023-02-24T01:31:39;93534.78;;;5.31;56.17
19783;BME280;10051;40.294;-3.754;2023-02-24T01:34:10;93495.66;;;5.05;55.95
19783;BME280;10051;40.294;-3.754;2023-02-24T01:36:39;93535.53;;;5.42;55.66
19783;BME280;10051;40.294;-3.754;2023-02-24T01:39:05;93520.16;;;5.15;56.59
19783;BME280;10051;40.294;-3.754;2023-02-24T01:41:38;93478.19;;;5.01;56.04
19783;BME280;10051;40.294;-3.754;2023-02-24T01:46:57;93480.78;;;4.90;56.54
19783;BME280;10051;40.294;-3.754;2023-02-24T01:49:32;93530.88;;;5.24;56.30
19783;BME280;10051;40.294;-3.754;2023-02-24T01:52:03;93524.84;;;5.18;56.81
19783;BME280;10051;40.294;-3.754;2023-02-24T01:54:41;93468.28;;;4.77;57.05
19783;BME280;10051;40.294;-3.754;2023-02-24T01:57:15;93524.84;;;5.13;57.01
19783;BME280;10051;40.294;-3.754;2023-02-24T01:59:45;93463.84;;;4.78;57.23
19783;BME280;10051;40.294;-3.754;2023-02-24T02:02:12;93398.16;;;4.19;57.37
19783;BME280;10051;40.294;-3.754;2023-02-24T02:04:51;93526.94;;;5.16;57.50
19783;BME280;10051;40.294;-3.754;2023-02-24T02:07:21;93468.81;;;4.84;57.01
19783;BME280;10051;40.294;-3.754;2023-02-24T02:09:48;93505.31;;;5.15;56.37
19783;BME280;10051;40.294;-3.754;2023-02-24T02:12:14;93466.44;;;4.83;56.58
19783;BME280;10051;40.294;-3.754;2023-02-24T02:14:45;93513.38;;;5.14;56.76
19783;BME280;10051;40.294;-3.754;2023-02-24T02:17:37;93525.66;;;5.24;56.91
19783;BME280;10051;40.294;-3.754;2023-02-24T02:23:20;93530.59;;;5.04;57.03
19783;BME280;10051;40.294;-3.754;2023-02-24T02:34:50;93515.69;;;4.95;57.32
19783;BME280;10051;40.294;-3.754;2023-02-24T02:40:09;93513.63;;;4.97;57.14
19783;BME280;10051;40.294;-3.754;2023-02-24T02:42:56;93458.31;;;4.53;57.73
19783;BME280;10051;40.294;-3.754;2023-02-24T02:46:29;93519.09;;;4.90;58.15
19783;BME280;10051;40.294;-3.754;2023-02-24T02:48:54;93487.53;;;4.71;57.87
19783;BME280;10051;40.294;-3.754;2023-02-24T02:51:28;93450.72;;;4.31;58.74
19783;BME280;10051;40.294;-3.754;2023-02-24T02:54:15;93499.94;;;4.43;60.17
19783;BME280;10051;40.294;-3.754;2023-02-24T02:56:47;93498.72;;;4.56;60.37
19783;BME280;10051;40.294;-3.754;2023-02-24T02:59:21;93482.41;;;4.07;61.17
19783;BME280;10051;40.294;-3.754;2023-02-24T03:01:52;93402.59;;;3.11;62.85
19783;BME280;10051;40.294;-3.754;2023-02-24T03:04:21;93512.56;;;4.03;62.47
19783;BME280;10051;40.294;-3.754;2023-02-24T03:06:56;93452.44;;;3.94;61.64
19783;BME280;10051;40.294;-3.754;2023-02-24T03:09:29;93503.78;;;4.14;62.26
19783;BME280;10051;40.294;-3.754;2023-02-24T03:12:00;93446.00;;;3.59;62.59
19783;BME280;10051;40.294;-3.754;2023-02-24T03:14:28;93465.69;;;3.45;64.31
19783;BME280;10051;40.294;-3.754;2023-02-24T03:16:58;93495.78;;;3.78;64.59
19783;BME280;10051;40.294;-3.754;2023-02-24T03:19:32;93460.03;;;3.58;64.25
19783;BME280;10051;40.294;-3.754;2023-02-24T03:22:18;93500.97;;;3.73;64.96
19783;BME280;10051;40.294;-3.754;2023-02-24T03:24:46;93441.81;;;3.10;65.85
19783;BME280;10051;40.294;-3.754;2023-02-24T03:27:20;93478.84;;;3.33;66.98
19783;BME280;10051;40.294;-3.754;2023-02-24T03:30:06;93503.34;;;3.42;66.58
19783;BME280;10051;40.294;-3.754;2023-02-24T03:35:26;93485.31;;;3.25;66.87
19783;BME280;10051;40.294;-3.754;2023-02-24T03:37:55;93452.56;;;2.91;67.34
19783;BME280;10051;40.294;-3.754;2023-02-24T03:40:23;93461.03;;;3.09;66.90
19783;BME280;10051;40.294;-3.754;2023-02-24T03:43:04;93458.06;;;2.95;67.37
19783;BME280;10051;40.294;-3.754;2023-02-24T03:45:36;93417.50;;;2.89;66.78
19783;BME280;10051;40.294;-3.754;2023-02-24T03:48:04;93498.34;;;3.68;65.79
19783;BME280;10051;40.294;-3.754;2023-02-24T03:50:31;93515.13;;;3.98;65.25
19783;BME280;10051;40.294;-3.754;2023-02-24T03:53:28;93444.66;;;3.51;64.71
19783;BME280;10051;40.294;-3.754;2023-02-24T03:56:17;93480.75;;;3.91;63.67
19783;BME280;10051;40.294;-3.754;2023-02-24T04:04:11;93497.19;;;3.96;63.58
19783;BME280;10051;40.294;-3.754;2023-02-24T04:06:56;93485.91;;;3.75;64.18
19783;BME280;10051;40.294;-3.754;2023-02-24T04:09:33;93511.63;;;3.77;65.09
19783;BME280;10051;40.294;-3.754;2023-02-24T04:15:10;93520.16;;;3.67;65.11
19783;BME280;10051;40.294;-3.754;2023-02-24T04:17:44;93507.31;;;3.93;64.35
19783;BME280;10051;40.294;-3.754;2023-02-24T04:20:13;93438.53;;;3.25;64.79
19783;BME280;10051;40.294;-3.754;2023-02-24T04:22:43;93456.13;;;3.55;64.17
19783;BME280;10051;40.294;-3.754;2023-02-24T04:25:15;93511.00;;;4.02;63.71
19783;BME280;10051;40.294;-3.754;2023-02-24T04:27:43;93509.66;;;3.99;63.27
19783;BME280;10051;40.294;-3.754;2023-02-24T04:30:11;93516.56;;;3.78;64.52
19783;BME280;10051;40.294;-3.754;2023-02-24T04:32:37;93445.97;;;3.11;64.83
19783;BME280;10051;40.294;-3.754;2023-02-24T04:35:08;93336.41;;;2.44;64.86
19783;BME280;10051;40.294;-3.754;2023-02-24T04:37:34;93432.34;;;3.31;64.18
19783;BME280;10051;40.294;-3.754;2023-02-24T04:40:02;93506.25;;;3.89;64.25
19783;BME280;10051;40.294;-3.754;2023-02-24T04:42:35;93439.94;;;3.43;63.94
19783;BME280;10051;40.294;-3.754;2023-02-24T04:45:05;93380.91;;;2.95;64.37
19783;BME280;10051;40.294;-3.754;2023-02-24T04:47:34;93500.25;;;3.88;63.51
19783;BME280;10051;40.294;-3.754;2023-02-24T04:50:02;93481.75;;;3.84;63.07
19783;BME280;10051;40.294;-3.754;2023-02-24T04:52:31;93488.81;;;3.89;63.41
19783;BME280;10051;40.294;-3.754;2023-02-24T04:54:57;93437.00;;;3.29;63.84
19783;BME280;10051;40.294;-3.754;2023-02-24T04:57:23;93477.91;;;3.44;64.38
19783;BME280;10051;40.294;-3.754;2023-02-24T04:59:49;93471.66;;;3.45;63.46
19783;BME280;10051;40.294;-3.754;2023-02-24T05:02:18;93383.44;;;2.80;63.53
19783;BME280;10051;40.294;-3.754;2023-02-24T05:04:45;93433.75;;;3.06;64.10
19783;BME280;10051;40.294;-3.754;2023-02-24T05:07:14;93406.22;;;2.73;64.09
19783;BME280;10051;40.294;-3.754;2023-02-24T05:09:40;93473.72;;;3.43;63.30
19783;BME280;10051;40.294;-3.754;2023-02-24T05:12:06;93507.19;;;3.72;63.63
19783;BME280;10051;40.294;-3.754;2023-02-24T05:14:34;93521.00;;;3.78;63.08
19783;BME280;10051;40.294;-3.754;2023-02-24T05:16:59;93413.06;;;2.84;63.88
19783;BME280;10051;40.294;-3.754;2023-02-24T05:19:25;93403.81;;;2.66;65.00
19783;BME280;10051;40.294;-3.754;2023-02-24T05:22:12;93475.00;;;3.03;65.38
19783;BME280;10051;40.294;-3.754;2023-02-24T05:24:41;93455.06;;;3.13;64.82
19783;BME280;10051;40.294;-3.754;2023-02-24T05:27:08;93499.16;;;3.36;64.53
19783;BME280;10051;40.294;-3.754;2023-02-24T05:29:34;93407.53;;;2.75;64.52
19783;BME280;10051;40.294;-3.754;2023-02-24T05:32:02;93519.38;;;3.66;64.51
19783;BME280;10051;40.294;-3.754;2023-02-24T05:34:29;93448.00;;;3.04;64.14
19783;BME280;10051;40.294;-3.754;2023-02-24T05:36:56;93515.31;;;3.43;64.86
19783;BME280;10051;40.294;-3.754;2023-02-24T05:39:22;93452.88;;;3.33;63.28
19783;BME280;10051;40.294;-3.754;2023-02-24T05:41:51;93521.78;;;3.73;63.20
19783;BME280;10051;40.294;-3.754;2023-02-24T05:44:20;93526.59;;;3.59;64.14
19783;BME280;10051;40.294;-3.754;2023-02-24T05:46:48;93515.31;;;3.43;65.20
19783;BME280;10051;40.294;-3.754;2023-02-24T05:49:19;93525.03;;;3.20;68.50
19783;BME280;10051;40.294;-3.754;2023-02-24T05:51:49;93524.19;;;3.47;65.98
19783;BME280;10051;40.294;-3.754;2023-02-24T05:54:23;93523.72;;;3.55;64.83
19783;BME280;10051;40.294;-3.754;2023-02-24T05:56:50;93521.97;;;3.66;64.91
19783;BME280;10051;40.294;-3.754;2023-02-24T05:59:16;93504.22;;;3.53;64.49
19783;BME280;10051;40.294;-3.754;2023-02-24T06:01:46;93516.00;;;3.66;64.19
19783;BME280;10051;40.294;-3.754;2023-02-24T06:04:14;93505.25;;;3.57;64.39
19783;BME280;10051;40.294;-3.754;2023-02-24T06:07:00;93514.63;;;3.53;64.79
19783;BME280;10051;40.294;-3.754;2023-02-24T06:09:30;93524.84;;;3.65;64.44
19783;BME280;10051;40.294;-3.754;2023-02-24T06:11:55;93517.59;;;3.72;63.82
19783;BME280;10051;40.294;-3.754;2023-02-24T06:14:21;93512.91;;;3.69;63.93
19783;BME280;10051;40.294;-3.754;2023-02-24T06:16:47;93502.34;;;3.48;63.86
19783;BME280;10051;40.294;-3.754;2023-02-24T06:19:12;93517.22;;;3.53;64.64
19783;BME280;10051;40.294;-3.754;2023-02-24T06:21:40;93474.97;;;2.97;64.72
19783;BME280;10051;40.294;-3.754;2023-02-24T06:24:10;93397.81;;;2.33;65.68
19783;BME280;10051;40.294;-3.754;2023-02-24T06:26:39;93495.69;;;2.92;65.49
19783;BME280;10051;40.294;-3.754;2023-02-24T06:29:14;93497.75;;;2.90;65.72
19783;BME280;10051;40.294;-3.754;2023-02-24T06:31:41;93470.59;;;2.71;65.87
19783;BME280;10051;40.294;-3.754;2023-02-24T06:34:09;93486.97;;;3.04;65.28
19783;BME280;10051;40.294;-3.754;2023-02-24T06:36:36;93533.41;;;3.27;64.45
19783;BME280;10051;40.294;-3.754;2023-02-24T06:39:03;93464.25;;;2.61;66.89
19783;BME280;10051;40.294;-3.754;2023-02-24T06:41:33;93486.59;;;2.62;67.53
19783;BME280;10051;40.294;-3.754;2023-02-24T06:43:59;93508.72;;;2.70;67.82
19783;BME280;10051;40.294;-3.754;2023-02-24T06:46:25;93533.09;;;2.42;71.42
19783;BME280;10051;40.294;-3.754;2023-02-24T06:48:50;93504.56;;;1.97;71.77
19783;BME280;10051;40.294;-3.754;2023-02-24T06:51:16;93401.53;;;1.26;71.99
19783;BME280;10051;40.294;-3.754;2023-02-24T06:53:42;93531.63;;;2.06;72.06
19783;BME280;10051;40.294;-3.754;2023-02-24T06:56:11;93520.00;;;2.09;71.38
19783;BME280;10051;40.294;-3.754;2023-02-24T06:58:43;93542.75;;;2.46;71.02
19783;BME280;10051;40.294;-3.754;2023-02-24T07:01:14;93459.41;;;1.93;71.36
19783;BME280;10051;40.294;-3.754;2023-02-24T07:03:41;93465.41;;;2.21;70.37
19783;BME280;10051;40.294;-3.754;2023-02-24T07:06:28;93457.75;;;2.31;68.82
19783;BME280;10051;40.294;-3.754;2023-02-24T07:08:54;93551.75;;;2.88;68.82
19783;BME280;10051;40.294;-3.754;2023-02-24T07:11:21;93543.00;;;2.72;69.32
19783;BME280;10051;40.294;-3.754;2023-02-24T07:13:48;93478.88;;;2.18;69.44
19783;BME280;10051;40.294;-3.754;2023-02-24T07:16:16;93532.91;;;2.48;70.38
19783;BME280;10051;40.294;-3.754;2023-02-24T07:18:43;93544.44;;;2.35;70.02
19783;BME280;10051;40.294;-3.754;2023-02-24T07:21:14;93453.00;;;1.78;70.13
19783;BME280;10051;40.294;-3.754;2023-02-24T07:23:42;93432.19;;;1.51;71.28
19783;BME280;10051;40.294;-3.754;2023-02-24T07:26:13;93453.19;;;1.72;71.40
19783;BME280;10051;40.294;-3.754;2023-02-24T07:28:40;93453.53;;;1.58;72.01
19783;BME280;10051;40.294;-3.754;2023-02-24T07:31:11;93455.63;;;1.61;72.05
19783;BME280;10051;40.294;-3.754;2023-02-24T07:33:38;93575.13;;;2.66;70.72
19783;BME280;10051;40.294;-3.754;2023-02-24T07:36:07;93469.66;;;2.05;70.31
19783;BME280;10051;40.294;-3.754;2023-02-24T07:38:38;93523.13;;;2.56;70.13
19783;BME280;10051;40.294;-3.754;2023-02-24T07:41:04;93572.97;;;2.80;70.63
19783;BME280;10051;40.294;-3.754;2023-02-24T07:43:38;93524.81;;;2.45;70.47
19783;BME280;10051;40.294;-3.754;2023-02-24T07:48:32;93571.41;;;3.06;69.31
19783;BME280;10051;40.294;-3.754;2023-02-24T07:50:59;93512.16;;;2.76;69.50
19783;BME280;10051;40.294;-3.754;2023-02-24T07:53:25;93448.84;;;2.49;69.53
19783;BME280;10051;40.294;-3.754;2023-02-24T07:55:52;93557.50;;;3.23;68.52
19783;BME280;10051;40.294;-3.754;2023-02-24T07:58:18;93504.00;;;2.94;68.39
19783;BME280;10051;40.294;-3.754;2023-02-24T08:00:45;93491.50;;;2.86;68.86
19783;BME280;10051;40.294;-3.754;2023-02-24T08:03:35;93547.13;;;3.23;68.24
19783;BME280;10051;40.294;-3.754;2023-02-24T08:06:09;93586.84;;;3.46;68.52
19783;BME280;10051;40.294;-3.754;2023-02-24T08:08:41;93589.66;;;3.44;68.10
19783;BME280;10051;40.294;-3.754;2023-02-24T08:11:26;93532.09;;;2.97;68.06
19783;BME280;10051;40.294;-3.754;2023-02-24T08:13:59;93569.78;;;3.27;68.46
19783;BME280;10051;40.294;-3.754;2023-02-24T08:16:27;93591.19;;;3.40;68.18
19783;BME280;10051;40.294;-3.754;2023-02-24T08:19:11;93541.56;;;3.09;68.41
19783;BME280;10051;40.294;-3.754;2023-02-24T08:21:49;93592.84;;;3.51;68.26
19783;BME280;10051;40.294;-3.754;2023-02-24T08:24:21;93563.53;;;3.61;67.52
19783;BME280;10051;40.294;-3.754;2023-02-24T08:26:50;93588.50;;;3.62;67.69
19783;BME280;10051;40.294;-3.754;2023-02-24T08:29:37;93568.81;;;3.71;67.78
19783;BME280;10051;40.294;-3.754;2023-02-24T08:32:39;93554.16;;;3.98;65.54
19783;BME280;10051;40.294;-3.754;2023-02-24T08:35:10;93580.34;;;4.29;65.61
19783;BME280;10051;40.294;-3.754;2023-02-24T08:37:42;93583.81;;;4.50;64.43
19783;BME280;10051;40.294;-3.754;2023-02-24T08:40:23;93577.94;;;4.81;63.70
19783;BME280;10051;40.294;-3.754;2023-02-24T08:43:24;93586.28;;;4.83;63.00
19783;BME280;10051;40.294;-3.754;2023-02-24T08:48:42;93588.44;;;5.12;62.50
19783;BME280;10051;40.294;-3.754;2023-02-24T08:51:33;93546.19;;;5.10;62.19
19783;BME280;10051;40.294;-3.754;2023-02-24T08:54:05;93555.59;;;5.00;62.56
19783;BME280;10051;40.294;-3.754;2023-02-24T08:56:36;93452.84;;;4.39;61.54
19783;BME280;10051;40.294;-3.754;2023-02-24T08:59:08;93535.03;;;5.14;61.61
19783;BME280;10051;40.294;-3.754;2023-02-24T09:01:40;93593.97;;;5.62;60.92
19783;BME280;10051;40.294;-3.754;2023-02-24T09:04:18;93589.25;;;5.74;61.18
19783;BME280;10051;40.294;-3.754;2023-02-24T09:06:50;93593.97;;;5.67;60.72
19783;BME280;10051;40.294;-3.754;2023-02-24T09:09:23;93472.97;;;4.85;60.89
19783;BME280;10051;40.294;-3.754;2023-02-24T09:14:28;93599.97;;;6.04;60.38
19783;BME280;10051;40.294;-3.754;2023-02-24T09:17:05;93593.16;;;5.98;60.51
19783;BME280;10051;40.294;-3.754;2023-02-24T09:19:47;93507.38;;;5.60;58.30
19783;BME280;10051;40.294;-3.754;2023-02-24T09:22:24;93579.88;;;5.89;59.12
19783;BME280;10051;40.294;-3.754;2023-02-24T09:24:58;93557.94;;;5.74;58.28
19783;BME280;10051;40.294;-3.754;2023-02-24T09:27:47;93515.22;;;5.55;58.24
19783;BME280;10051;40.294;-3.754;2023-02-24T09:30:26;93561.88;;;6.03;55.20
19783;BME280;10051;40.294;-3.754;2023-02-24T09:36:02;93598.31;;;6.44;53.96
19783;BME280;10051;40.294;-3.754;2023-02-24T09:38:41;93583.97;;;6.47;53.23
19783;BME280;10051;40.294;-3.754;2023-02-24T09:41:45;93589.34;;;6.71;52.54
19783;BME280;10051;40.294;-3.754;2023-02-24T09:44:38;93593.25;;;6.79;52.49
19783;BME280;10051;40.294;-3.754;2023-02-24T09:47:11;93594.13;;;6.53;52.58
19783;BME280;10051;40.294;-3.754;2023-02-24T09:49:48;93522.66;;;6.29;52.41
19783;BME280;10051;40.294;-3.754;2023-02-24T09:52:23;93596.59;;;6.84;52.37
19783;BME280;10051;40.294;-3.754;2023-02-24T09:55:13;93593.38;;;7.03;51.36
19783;BME280;10051;40.294;-3.754;2023-02-24T10:04:08;93599.56;;;7.23;50.95
19783;BME280;10051;40.294;-3.754;2023-02-24T10:06:42;93603.69;;;7.29;49.57
19783;BME280;10051;40.294;-3.754;2023-02-24T10:09:17;93595.47;;;7.06;49.47
19783;BME280;10051;40.294;-3.754;2023-02-24T10:11:50;93599.03;;;7.26;49.88
19783;BME280;10051;40.294;-3.754;2023-02-24T10:14:28;93600.59;;;7.27;50.49
19783;BME280;10051;40.294;-3.754;2023-02-24T10:16:56;93593.97;;;7.40;49.81
19783;BME280;10051;40.294;-3.754;2023-02-24T10:19:59;93580.63;;;7.36;49.57
19783;BME280;10051;40.294;-3.754;2023-02-24T10:22:48;93596.81;;;7.43;49.72
19783;BME280;10051;40.294;-3.754;2023-02-24T10:25:57;93573.53;;;7.47;49.38
19783;BME280;10051;40.294;-3.754;2023-02-24T10:28:49;93588.94;;;7.83;49.07
19783;BME280;10051;40.294;-3.754;2023-02-24T10:31:26;93575.16;;;8.02;48.72
19783;BME280;10051;40.294;-3.754;2023-02-24T10:34:04;93584.44;;;7.89;46.89
19783;BME280;10051;40.294;-3.754;2023-02-24T10:36:33;93585.63;;;7.72;47.23
19783;BME280;10051;40.294;-3.754;2023-02-24T10:41:51;93565.75;;;8.25;46.51
19783;BME280;10051;40.294;-3.754;2023-02-24T10:44:25;93562.09;;;8.26;45.66
19783;BME280;10051;40.294;-3.754;2023-02-24T10:46:59;93529.81;;;8.07;46.26
19783;BME280;10051;40.294;-3.754;2023-02-24T10:49:40;93535.69;;;8.47;46.40
19783;BME280;10051;40.294;-3.754;2023-02-24T10:52:13;93551.56;;;8.80;46.80
19783;BME280;10051;40.294;-3.754;2023-02-24T10:55:03;93493.03;;;8.41;44.45
19783;BME280;10051;40.294;-3.754;2023-02-24T10:57:43;93500.06;;;8.46;44.84
19783;BME280;10051;40.294;-3.754;2023-02-24T11:00:19;93549.31;;;8.49;45.25
19783;BME280;10051;40.294;-3.754;2023-02-24T11:03:08;93544.91;;;8.39;44.65
19783;BME280;10051;40.294;-3.754;2023-02-24T11:05:41;93448.59;;;7.63;45.21
19783;BME280;10051;40.294;-3.754;2023-02-24T11:08:26;93505.38;;;8.16;45.31
19783;BME280;10051;40.294;-3.754;2023-02-24T11:11:21;93558.34;;;8.81;43.43
19783;BME280;10051;40.294;-3.754;2023-02-24T11:13:55;93489.53;;;8.27;43.33
19783;BME280;10051;40.294;-3.754;2023-02-24T11:16:48;93541.06;;;8.80;43.26
19783;BME280;10051;40.294;-3.754;2023-02-24T11:19:43;93553.94;;;9.20;42.23
19783;BME280;10051;40.294;-3.754;2023-02-24T11:22:15;93542.06;;;9.22;41.93
19783;BME280;10051;40.294;-3.754;2023-02-24T11:24:43;93550.22;;;9.40;42.49
19783;BME280;10051;40.294;-3.754;2023-02-24T11:27:10;93546.03;;;9.39;42.67
19783;BME280;10051;40.294;-3.754;2023-02-24T11:29:45;93550.72;;;9.75;43.24
19783;BME280;10051;40.294;-3.754;2023-02-24T11:34:53;93542.06;;;9.42;42.53
19783;BME280;10051;40.294;-3.754;2023-02-24T11:42:29;93537.84;;;9.93;41.40
19783;BME280;10051;40.294;-3.754;2023-02-24T11:45:03;93539.69;;;10.06;41.14
19783;BME280;10051;40.294;-3.754;2023-02-24T11:47:45;93525.44;;;10.40;40.95
19783;BME280;10051;40.294;-3.754;2023-02-24T11:50:30;93529.44;;;10.52;39.68
19783;BME280;10051;40.294;-3.754;2023-02-24T11:53:04;93476.47;;;10.03;39.93
19783;BME280;10051;40.294;-3.754;2023-02-24T11:55:43;93472.63;;;9.67;40.43
19783;BME280;10051;40.294;-3.754;2023-02-24T11:58:25;93464.34;;;9.60;40.21
19783;BME280;10051;40.294;-3.754;2023-02-24T12:09:51;93471.69;;;10.19;40.21
19783;BME280;10051;40.294;-3.754;2023-02-24T12:12:26;93479.59;;;10.19;40.56
19783;BME280;10051;40.294;-3.754;2023-02-24T12:14:56;93393.38;;;9.51;40.75
19783;BME280;10051;40.294;-3.754;2023-02-24T12:17:37;93349.25;;;9.39;40.54
19783;BME280;10051;40.294;-3.754;2023-02-24T12:20:22;93414.59;;;10.10;39.99
19783;BME280;10051;40.294;-3.754;2023-02-24T12:23:00;93444.53;;;10.65;40.15
19783;BME280;10051;40.294;-3.754;2023-02-24T12:25:33;93448.81;;;10.98;40.06
19783;BME280;10051;40.294;-3.754;2023-02-24T12:28:22;93448.63;;;11.17;39.18
19783;BME280;10051;40.294;-3.754;2023-02-24T12:39:08;93406.19;;;11.73;37.01
19783;BME280;10051;40.294;-3.754;2023-02-24T12:46:53;93391.03;;;11.70;35.55
19783;BME280;10051;40.294;-3.754;2023-02-24T12:52:21;93418.81;;;12.34;35.16
19783;BME280;10051;40.294;-3.754;2023-02-24T12:59:46;93406.28;;;12.66;34.16
19783;BME280;10051;40.294;-3.754;2023-02-24T13:06:03;93391.88;;;12.90;34.27
19783;BME280;10051;40.294;-3.754;2023-02-24T13:08:17;93309.03;;;12.38;33.53
19783;BME280;10051;40.294;-3.754;2023-02-24T13:16:34;93373.09;;;12.47;33.17
19783;BME280;10051;40.294;-3.754;2023-02-24T13:21:31;93305.63;;;12.11;33.67
19783;BME280;10051;40.294;-3.754;2023-02-24T13:23:59;93360.06;;;12.42;33.36
19783;BME280;10051;40.294;-3.754;2023-02-24T13:26:27;93354.78;;;12.42;34.07
19783;BME280;10051;40.294;-3.754;2023-02-24T13:29:19;93349.06;;;12.40;33.13
19783;BME280;10051;40.294;-3.754;2023-02-24T13:31:50;93332.91;;;12.24;33.55
19783;BME280;10051;40.294;-3.754;2023-02-24T13:36:54;93284.34;;;11.99;34.05
19783;BME280;10051;40.294;-3.754;2023-02-24T13:39:41;93274.59;;;12.26;33.33
19783;BME280;10051;40.294;-3.754;2023-02-24T13:42:28;93296.31;;;12.58;32.61
19783;BME280;10051;40.294;-3.754;2023-02-24T13:53:26;93220.97;;;12.39;31.37
19783;BME280;10051;40.294;-3.754;2023-02-24T13:56:21;93276.47;;;12.52;31.03
19783;BME280;10051;40.294;-3.754;2023-02-24T14:01:43;93289.47;;;12.74;32.31
19783;BME280;10051;40.294;-3.754;2023-02-24T14:04:13;93287.09;;;12.90;31.84
19783;BME280;10051;40.294;-3.754;2023-02-24T14:06:45;93283.41;;;12.83;31.81
19783;BME280;10051;40.294;-3.754;2023-02-24T14:09:15;93283.19;;;13.05;32.32
19783;BME280;10051;40.294;-3.754;2023-02-24T14:11:51;93288.91;;;13.16;31.74
19783;BME280;10051;40.294;-3.754;2023-02-24T14:14:18;93224.44;;;12.78;31.40
19783;BME280;10051;40.294;-3.754;2023-02-24T14:16:45;93266.00;;;12.90;31.99
19783;BME280;10051;40.294;-3.754;2023-02-24T14:19:14;93232.25;;;12.57;31.80
19783;BME280;10051;40.294;-3.754;2023-02-24T14:21:53;93214.44;;;11.93;32.17
19783;BME280;10051;40.294;-3.754;2023-02-24T14:24:20;93256.31;;;12.38;32.31
19783;BME280;10051;40.294;-3.754;2023-02-24T14:26:49;93260.16;;;12.67;31.60
19783;BME280;10051;40.294;-3.754;2023-02-24T14:29:21;93232.84;;;12.63;31.53
19783;BME280;10051;40.294;-3.754;2023-02-24T14:31:50;93239.94;;;12.89;31.84
19783;BME280;10051;40.294;-3.754;2023-02-24T14:34:22;93264.25;;;13.12;31.59
19783;BME280;10051;40.294;-3.754;2023-02-24T14:36:52;93255.25;;;13.04;30.77
19783;BME280;10051;40.294;-3.754;2023-02-24T14:39:23;93211.88;;;12.75;31.15
19783;BME280;10051;40.294;-3.754;2023-02-24T14:44:31;93253.19;;;12.62;30.68
19783;BME280;10051;40.294;-3.754;2023-02-24T14:47:01;93244.69;;;12.22;31.27
19783;BME280;10051;40.294;-3.754;2023-02-24T14:49:29;93238.94;;;12.19;31.63
19783;BME280;10051;40.294;-3.754;2023-02-24T14:52:09;93252.75;;;12.43;31.71
19783;BME280;10051;40.294;-3.754;2023-02-24T14:54:55;93252.25;;;12.67;31.22
19783;BME280;10051;40.294;-3.754;2023-02-24T14:57:23;93249.75;;;12.79;30.86
19783;BME280;10051;40.294;-3.754;2023-02-24T14:59:57;93253.44;;;12.96;30.06
19783;BME280;10051;40.294;-3.754;2023-02-24T15:02:30;93250.16;;;12.99;28.89
19783;BME280;10051;40.294;-3.754;2023-02-24T15:04:57;93215.91;;;12.82;28.74
19783;BME280;10051;40.294;-3.754;2023-02-24T15:07:29;93248.25;;;13.08;29.19
19783;BME280;10051;40.294;-3.754;2023-02-24T15:09:57;93236.59;;;13.09;28.97
19783;BME280;10051;40.294;-3.754;2023-02-24T15:15:04;93228.00;;;12.83;28.65
19783;BME280;10051;40.294;-3.754;2023-02-24T15:17:38;93254.97;;;12.97;28.96
19783;BME280;10051;40.294;-3.754;2023-02-24T15:20:25;93243.97;;;12.86;29.68
19783;BME280;10051;40.294;-3.754;2023-02-24T15:22:52;93225.28;;;12.53;29.50
19783;BME280;10051;40.294;-3.754;2023-02-24T15:25:24;93171.22;;;12.02;30.12
19783;BME280;10051;40.294;-3.754;2023-02-24T15:27:53;93240.50;;;12.56;30.70